Al Mukalla, Yemen
Current Conditions -  °F | °C
As of 6:00 PM on Saturday 25 Oct 2014 (Local Time) from OYRN Reporting Station
Clear Clear  
Wind Chill: 86°   Ceiling: Unl
Heat Index: 92°   Visibility: 6mi
Dew Point: 72°   Wind: 0mph
Humidity: 62%   Direction: NA
Pressure: 29.8"   Gusts: NA
Location:  14.54°N, 49.13°E
Report Text: OYRN 251500Z 00000KT CAVOK 30/22 Q1009
Loading
Personal Weather Stations






























Interactive Weather Map
Tropical Storm Tracking
New forecast layout! Learn more

10-Day Weather Forecast

Advertisements
Track Severe Weather on mobile